TimeCST,TemperatureF,Dew PointF,Humidity,Sea Level PressureIn,VisibilityMPH,Wind Direction,Wind SpeedMPH,Gust SpeedMPH,PrecipitationIn,Events,Conditions,WindDirDegrees,DateUTC
12:10 AM,66.2,62.6,88,29.99,4.0,SSW,11.5,24.2,0.06,Rain,Heavy Rain,210,2013-02-19 06:10:00
12:29 AM,64.4,60.8,88,30.00,10.0,WSW,10.4,-,0.07,Rain,Light Rain,240,2013-02-19 06:29:00
12:53 AM,63.0,57.9,84,30.00,10.0,SW,8.1,-,0.07,,Mostly Cloudy,220,2013-02-19 06:53:00
1:53 AM,63.0,57.9,84,30.02,10.0,West,9.2,-,0.00,Rain,Light Rain,260,2013-02-19 07:53:00
2:53 AM,62.1,57.9,86,30.02,10.0,NW,8.1,-,0.01,,Overcast,310,2013-02-19 08:53:00
3:53 AM,60.1,53.1,78,30.06,10.0,NNW,12.7,-,N/A,,Mostly Cloudy,340,2013-02-19 09:53:00
4:53 AM,57.9,50.0,75,30.08,10.0,North,12.7,-,N/A,,Overcast,350,2013-02-19 10:53:00
5:53 AM,55.0,48.9,80,30.12,10.0,North,9.2,-,N/A,,Clear,360,2013-02-19 11:53:00
6:53 AM,53.1,44.1,71,30.16,10.0,North,13.8,-,N/A,,Clear,360,2013-02-19 12:53:00
7:53 AM,54.0,44.1,69,30.18,10.0,North,16.1,-,N/A,,Clear,10,2013-02-19 13:53:00
8:53 AM,57.0,43.0,59,30.21,10.0,NNE,18.4,24.2,N/A,,Clear,20,2013-02-19 14:53:00
9:53 AM,60.1,44.1,55,30.23,10.0,NNE,13.8,-,N/A,,Clear,30,2013-02-19 15:53:00
10:53 AM,61.0,42.1,50,30.24,10.0,NNE,12.7,-,N/A,,Clear,20,2013-02-19 16:53:00
12:53 PM,66.0,41.0,40,30.20,10.0,North,15.0,19.6,N/A,,Clear,10,2013-02-19 18:53:00
1:53 PM,66.9,39.9,37,30.19,10.0,North,10.4,17.3,N/A,,Clear,10,2013-02-19 19:53:00
2:53 PM,68.0,37.0,32,30.19,10.0,NNE,12.7,21.9,N/A,,Clear,30,2013-02-19 20:53:00
3:53 PM,66.9,35.1,31,30.18,10.0,NNE,12.7,21.9,N/A,,Clear,30,2013-02-19 21:53:00
4:53 PM,66.0,35.1,32,30.18,10.0,NNE,12.7,-,N/A,,Clear,30,2013-02-19 22:53:00
6:53 PM,54.0,39.9,59,30.19,10.0,North,9.2,-,N/A,,Clear,10,2013-02-20 00:53:00
7:53 PM,52.0,37.0,57,30.21,10.0,North,8.1,-,N/A,,Clear,10,2013-02-20 01:53:00
8:53 PM,52.0,36.0,54,30.22,10.0,NNE,6.9,-,N/A,,Clear,20,2013-02-20 02:53:00
9:53 PM,48.0,36.0,63,30.23,10.0,NNE,8.1,-,N/A,,Clear,30,2013-02-20 03:53:00
10:53 PM,51.1,36.0,56,30.23,10.0,NE,9.2,-,N/A,,Clear,40,2013-02-20 04:53:00
11:53 PM,51.1,35.1,54,30.21,10.0,NE,9.2,-,N/A,,Clear,50,2013-02-20 05:53:00